North Chili, NY (14514)

10:50 PM EDT on April 27, 2015 (GMT -0400)
Chili Backyard | | Change Station
CLOSE
Current Station
Personal Weather Station
Location: Rochester, NY
Elevation: 560 ft
Nearby Weather Stations

Elev 560 ft 43.11 °N, 77.77 °W | Updated 5 minutes ago

Overcast
Overcast
43.8 °F
Feels Like 44 °F
N
2.0
Wind Variable Wind from WNW
Gusts 8.0 mph

Today
High -- | Low -- °F
--% Chance of Precip.
Yesterday
High -- | Low -- °F
Precip. -- in
6:10 AM 8:07 PM
Waxing Gibbous, 70% visible
Pressure 29.94 in
Visibility 10.0 miles
Clouds Overcast 4800 ft
Windchill 44 °F
Dew Point 38 °F
Humidity 80%
Rainfall 0.00 in
Snow Depth Not available.
UV 0 out of 12
Pollen 8.80 out of 12
Air Quality Not available.
Flu Activity Widespread
METAR KROC 280154Z 26011KT 10SM OVC048 09/04 A2992 RMK AO2 RAE27 SLP139 P0000 T00890044

More Conditions Fewer Conditions

Pressure 29.94 in
Visibility 10.0 miles
Clouds Overcast 4800 ft
Windchill 44 °F
Dew Point 38 °F
Humidity 80%
Rainfall 0.00 in
Snow Depth Not available.
UV 0 out of 12
Pollen 8.80 out of 12
Air Quality Not available.
Flu Activity Widespread
METAR KROC 280154Z 26011KT 10SM OVC048 09/04 A2992 RMK AO2 RAE27 SLP139 P0000 T00890044

More Conditions Fewer Conditions

10-Day Weather Forecast

Almanac

Astronomy

Apr. 27, 2015 Rise Set
Actual Time
Civil Twilight
Nautical Twilight
Astronomical Twilight
Moon
Length of Visible Light
Length of Day
Tomorrow will be .
, % of the Moon is Illuminated

Today's Extremes

State Highs State Lows

Community

WunderPhotos

Upload Photos

1,817,527 photos uploaded!

WunderBlogs® & News

Nearby

Air Quality

  Air Quality AQ Index Pollutant
Not available.

Snow Depth

Station Depth Elevation

Earthquake Activity

City Distance Mag. Time & Date
Minimum magnitude displayed is 2.5.

Coastal Water Temperatures

Place Temperature

Stations

Nearby Weather Stations

Station Location Temp. Windchill Dew Point Humidity Wind Precip. Elev Updated Type